sensor_id;sensor_type;location;lat;lon;timestamp;P1;durP1;ratioP1;P2;durP2;ratioP2
10174;SDS011;18221;38.704;0.152;2023-04-25T08:12:01;3.42;;;2.13;;
10174;SDS011;18221;38.704;0.152;2023-04-25T08:14:30;5.18;;;2.33;;
10174;SDS011;18221;38.704;0.152;2023-04-25T08:17:01;4.97;;;2.40;;
10174;SDS011;18221;38.704;0.152;2023-04-25T08:19:30;9.90;;;2.78;;
10174;SDS011;18221;38.704;0.152;2023-04-25T08:21:59;9.18;;;2.45;;
10174;SDS011;18221;38.704;0.152;2023-04-25T08:24:27;3.70;;;2.05;;
10174;SDS011;18221;38.704;0.152;2023-04-25T08:26:56;5.45;;;2.30;;
10174;SDS011;18221;38.704;0.152;2023-04-25T08:29:38;4.43;;;2.47;;
10174;SDS011;18221;38.704;0.152;2023-04-25T08:32:07;4.70;;;2.30;;
10174;SDS011;18221;38.704;0.152;2023-04-25T08:34:35;4.57;;;2.27;;
10174;SDS011;18221;38.704;0.152;2023-04-25T08:37:07;4.47;;;2.80;;
10174;SDS011;18221;38.704;0.152;2023-04-25T08:39:37;4.47;;;2.47;;
10174;SDS011;18221;38.704;0.152;2023-04-25T08:42:05;7.07;;;2.30;;
10174;SDS011;18221;38.704;0.152;2023-04-25T08:44:34;5.93;;;2.07;;
10174;SDS011;18221;38.704;0.152;2023-04-25T08:47:05;7.87;;;3.07;;
10174;SDS011;18221;38.704;0.152;2023-04-25T08:49:34;5.37;;;2.33;;
10174;SDS011;18221;38.704;0.152;2023-04-25T08:52:03;4.40;;;2.80;;
10174;SDS011;18221;38.704;0.152;2023-04-25T08:54:32;7.50;;;2.30;;
10174;SDS011;18221;38.704;0.152;2023-04-25T08:57:01;6.70;;;2.60;;
10174;SDS011;18221;38.704;0.152;2023-04-25T08:59:30;5.90;;;2.63;;
10174;SDS011;18221;38.704;0.152;2023-04-25T09:01:59;7.70;;;3.17;;
10174;SDS011;18221;38.704;0.152;2023-04-25T09:04:31;7.17;;;3.13;;
10174;SDS011;18221;38.704;0.152;2023-04-25T09:07:01;7.77;;;3.40;;
10174;SDS011;18221;38.704;0.152;2023-04-25T09:09:34;8.93;;;4.60;;
10174;SDS011;18221;38.704;0.152;2023-04-25T09:12:03;6.73;;;3.63;;
10174;SDS011;18221;38.704;0.152;2023-04-25T09:14:32;8.97;;;4.03;;
10174;SDS011;18221;38.704;0.152;2023-04-25T09:17:01;9.30;;;4.10;;
10174;SDS011;18221;38.704;0.152;2023-04-25T09:19:35;8.77;;;3.90;;
10174;SDS011;18221;38.704;0.152;2023-04-25T09:22:06;5.83;;;3.67;;
10174;SDS011;18221;38.704;0.152;2023-04-25T09:24:36;7.20;;;4.20;;
10174;SDS011;18221;38.704;0.152;2023-04-25T09:27:09;9.17;;;4.43;;
10174;SDS011;18221;38.704;0.152;2023-04-25T09:29:45;7.27;;;3.90;;
10174;SDS011;18221;38.704;0.152;2023-04-25T09:32:18;7.17;;;4.50;;
10174;SDS011;18221;38.704;0.152;2023-04-25T09:34:52;6.30;;;3.90;;
10174;SDS011;18221;38.704;0.152;2023-04-25T09:37:24;8.70;;;4.67;;
10174;SDS011;18221;38.704;0.152;2023-04-25T09:39:55;6.67;;;4.60;;
10174;SDS011;18221;38.704;0.152;2023-04-25T09:42:28;7.07;;;4.30;;
10174;SDS011;18221;38.704;0.152;2023-04-25T09:44:57;10.93;;;5.77;;
10174;SDS011;18221;38.704;0.152;2023-04-25T09:47:29;8.53;;;6.47;;
10174;SDS011;18221;38.704;0.152;2023-04-25T09:49:59;6.73;;;5.13;;
10174;SDS011;18221;38.704;0.152;2023-04-25T09:52:28;9.33;;;6.93;;
10174;SDS011;18221;38.704;0.152;2023-04-25T09:54:56;10.90;;;6.90;;
10174;SDS011;18221;38.704;0.152;2023-04-25T09:57:24;14.80;;;9.07;;
10174;SDS011;18221;38.704;0.152;2023-04-25T09:59:53;14.87;;;9.67;;
10174;SDS011;18221;38.704;0.152;2023-04-25T10:02:23;17.17;;;10.77;;
10174;SDS011;18221;38.704;0.152;2023-04-25T10:04:54;12.70;;;8.00;;
10174;SDS011;18221;38.704;0.152;2023-04-25T10:07:26;13.77;;;8.30;;
10174;SDS011;18221;38.704;0.152;2023-04-25T10:09:58;9.93;;;7.30;;
10174;SDS011;18221;38.704;0.152;2023-04-25T10:12:29;9.83;;;7.90;;
10174;SDS011;18221;38.704;0.152;2023-04-25T10:14:59;11.00;;;7.70;;
10174;SDS011;18221;38.704;0.152;2023-04-25T10:17:29;10.37;;;7.50;;
10174;SDS011;18221;38.704;0.152;2023-04-25T10:20:01;12.07;;;8.57;;
10174;SDS011;18221;38.704;0.152;2023-04-25T10:22:35;14.80;;;10.23;;
10174;SDS011;18221;38.704;0.152;2023-04-25T10:25:08;14.27;;;9.40;;
10174;SDS011;18221;38.704;0.152;2023-04-25T10:27:38;12.07;;;9.03;;
10174;SDS011;18221;38.704;0.152;2023-04-25T10:30:08;11.97;;;7.70;;
10174;SDS011;18221;38.704;0.152;2023-04-25T10:32:41;9.17;;;6.83;;
10174;SDS011;18221;38.704;0.152;2023-04-25T10:35:13;16.47;;;8.70;;
10174;SDS011;18221;38.704;0.152;2023-04-25T10:37:58;14.87;;;9.93;;
10174;SDS011;18221;38.704;0.152;2023-04-25T10:40:30;14.30;;;9.70;;
10174;SDS011;18221;38.704;0.152;2023-04-25T10:46:12;25.33;;;10.30;;
10174;SDS011;18221;38.704;0.152;2023-04-25T10:48:55;20.43;;;11.33;;
10174;SDS011;18221;38.704;0.152;2023-04-25T10:51:26;11.57;;;8.27;;
10174;SDS011;18221;38.704;0.152;2023-04-25T10:53:58;15.40;;;9.23;;
10174;SDS011;18221;38.704;0.152;2023-04-25T10:56:29;13.40;;;9.60;;
10174;SDS011;18221;38.704;0.152;2023-04-25T10:59:06;15.60;;;9.73;;
10174;SDS011;18221;38.704;0.152;2023-04-25T11:01:36;23.30;;;11.90;;
10174;SDS011;18221;38.704;0.152;2023-04-25T11:04:19;13.03;;;8.97;;
10174;SDS011;18221;38.704;0.152;2023-04-25T11:09:49;12.30;;;7.73;;
10174;SDS011;18221;38.704;0.152;2023-04-25T11:12:18;14.13;;;10.47;;
10174;SDS011;18221;38.704;0.152;2023-04-25T11:14:46;14.60;;;9.77;;
10174;SDS011;18221;38.704;0.152;2023-04-25T11:17:14;18.37;;;10.30;;
10174;SDS011;18221;38.704;0.152;2023-04-25T11:19:43;12.93;;;8.90;;
10174;SDS011;18221;38.704;0.152;2023-04-25T11:22:15;16.73;;;10.50;;
10174;SDS011;18221;38.704;0.152;2023-04-25T11:24:45;16.50;;;9.20;;
10174;SDS011;18221;38.704;0.152;2023-04-25T11:27:15;11.50;;;7.00;;
10174;SDS011;18221;38.704;0.152;2023-04-25T11:29:44;16.13;;;8.17;;
10174;SDS011;18221;38.704;0.152;2023-04-25T11:32:15;9.00;;;5.20;;
10174;SDS011;18221;38.704;0.152;2023-04-25T11:34:45;13.10;;;5.53;;
10174;SDS011;18221;38.704;0.152;2023-04-25T11:37:15;10.13;;;6.83;;
10174;SDS011;18221;38.704;0.152;2023-04-25T11:39:44;11.33;;;6.80;;
10174;SDS011;18221;38.704;0.152;2023-04-25T11:42:15;14.27;;;7.80;;
10174;SDS011;18221;38.704;0.152;2023-04-25T11:44:45;12.67;;;6.73;;
10174;SDS011;18221;38.704;0.152;2023-04-25T11:47:13;17.13;;;6.93;;
10174;SDS011;18221;38.704;0.152;2023-04-25T11:49:42;7.57;;;5.10;;
10174;SDS011;18221;38.704;0.152;2023-04-25T11:55:16;15.77;;;6.53;;
10174;SDS011;18221;38.704;0.152;2023-04-25T11:57:49;25.13;;;7.23;;
10174;SDS011;18221;38.704;0.152;2023-04-25T12:00:19;11.10;;;5.00;;
10174;SDS011;18221;38.704;0.152;2023-04-25T12:02:51;7.27;;;4.27;;
10174;SDS011;18221;38.704;0.152;2023-04-25T12:05:23;7.97;;;4.47;;
10174;SDS011;18221;38.704;0.152;2023-04-25T12:07:54;8.83;;;4.97;;
10174;SDS011;18221;38.704;0.152;2023-04-25T12:10:23;10.43;;;5.07;;
10174;SDS011;18221;38.704;0.152;2023-04-25T12:12:53;7.50;;;4.60;;
10174;SDS011;18221;38.704;0.152;2023-04-25T12:15:23;5.63;;;4.00;;
10174;SDS011;18221;38.704;0.152;2023-04-25T12:17:53;9.07;;;4.17;;
10174;SDS011;18221;38.704;0.152;2023-04-25T12:20:23;12.87;;;5.37;;
10174;SDS011;18221;38.704;0.152;2023-04-25T12:22:53;11.67;;;4.70;;
10174;SDS011;18221;38.704;0.152;2023-04-25T12:25:33;10.00;;;5.07;;
10174;SDS011;18221;38.704;0.152;2023-04-25T12:28:12;11.13;;;5.73;;
10174;SDS011;18221;38.704;0.152;2023-04-25T12:31:04;8.50;;;5.03;;
10174;SDS011;18221;38.704;0.152;2023-04-25T12:33:35;6.90;;;4.70;;
10174;SDS011;18221;38.704;0.152;2023-04-25T12:36:05;9.13;;;4.93;;
10174;SDS011;18221;38.704;0.152;2023-04-25T12:38:37;11.03;;;5.97;;
10174;SDS011;18221;38.704;0.152;2023-04-25T12:41:08;11.60;;;4.73;;
10174;SDS011;18221;38.704;0.152;2023-04-25T12:43:38;14.53;;;5.33;;
10174;SDS011;18221;38.704;0.152;2023-04-25T12:46:07;9.20;;;4.33;;
10174;SDS011;18221;38.704;0.152;2023-04-25T12:48:36;27.17;;;6.87;;
10174;SDS011;18221;38.704;0.152;2023-04-25T12:51:04;10.73;;;5.50;;
10174;SDS011;18221;38.704;0.152;2023-04-25T12:53:34;7.57;;;4.07;;
10174;SDS011;18221;38.704;0.152;2023-04-25T12:56:05;8.30;;;4.67;;
10174;SDS011;18221;38.704;0.152;2023-04-25T12:58:34;10.37;;;4.83;;
10174;SDS011;18221;38.704;0.152;2023-04-25T13:01:04;11.57;;;4.57;;
10174;SDS011;18221;38.704;0.152;2023-04-25T13:03:32;14.63;;;5.27;;
10174;SDS011;18221;38.704;0.152;2023-04-25T13:06:00;7.90;;;4.97;;
10174;SDS011;18221;38.704;0.152;2023-04-25T13:08:29;9.60;;;4.33;;
10174;SDS011;18221;38.704;0.152;2023-04-25T13:10:57;13.10;;;5.03;;
10174;SDS011;18221;38.704;0.152;2023-04-25T13:13:28;11.83;;;5.27;;
10174;SDS011;18221;38.704;0.152;2023-04-25T13:15:57;8.63;;;4.37;;
10174;SDS011;18221;38.704;0.152;2023-04-25T13:29:55;10.30;;;4.60;;
10174;SDS011;18221;38.704;0.152;2023-04-25T13:32:23;9.87;;;4.53;;
10174;SDS011;18221;38.704;0.152;2023-04-25T13:34:52;8.63;;;4.13;;
10174;SDS011;18221;38.704;0.152;2023-04-25T13:40:08;8.20;;;3.97;;
10174;SDS011;18221;38.704;0.152;2023-04-25T13:42:37;8.57;;;3.83;;
10174;SDS011;18221;38.704;0.152;2023-04-25T13:45:08;7.57;;;3.97;;
10174;SDS011;18221;38.704;0.152;2023-04-25T13:47:38;6.67;;;3.70;;
10174;SDS011;18221;38.704;0.152;2023-04-25T13:50:07;8.27;;;3.33;;
10174;SDS011;18221;38.704;0.152;2023-04-25T13:52:37;8.43;;;3.70;;
10174;SDS011;18221;38.704;0.152;2023-04-25T14:01:59;10.43;;;4.17;;
10174;SDS011;18221;38.704;0.152;2023-04-25T14:04:28;10.20;;;3.93;;
10174;SDS011;18221;38.704;0.152;2023-04-25T14:06:57;9.83;;;4.07;;
10174;SDS011;18221;38.704;0.152;2023-04-25T14:09:26;11.00;;;4.23;;
10174;SDS011;18221;38.704;0.152;2023-04-25T14:11:54;7.40;;;3.97;;
10174;SDS011;18221;38.704;0.152;2023-04-25T14:14:23;8.47;;;3.87;;
10174;SDS011;18221;38.704;0.152;2023-04-25T14:16:52;7.27;;;3.53;;
10174;SDS011;18221;38.704;0.152;2023-04-25T14:19:24;7.57;;;3.20;;
10174;SDS011;18221;38.704;0.152;2023-04-25T14:21:54;12.03;;;3.93;;
10174;SDS011;18221;38.704;0.152;2023-04-25T14:24:23;7.23;;;3.07;;
10174;SDS011;18221;38.704;0.152;2023-04-25T14:26:51;7.57;;;3.57;;
10174;SDS011;18221;38.704;0.152;2023-04-25T14:29:20;12.47;;;4.30;;
10174;SDS011;18221;38.704;0.152;2023-04-25T14:31:49;5.33;;;2.93;;
10174;SDS011;18221;38.704;0.152;2023-04-25T14:34:19;12.97;;;3.77;;
10174;SDS011;18221;38.704;0.152;2023-04-25T14:36:49;8.03;;;3.07;;
10174;SDS011;18221;38.704;0.152;2023-04-25T14:39:19;4.93;;;2.70;;
10174;SDS011;18221;38.704;0.152;2023-04-25T14:41:47;6.40;;;2.87;;
10174;SDS011;18221;38.704;0.152;2023-04-25T14:44:18;11.20;;;3.87;;
10174;SDS011;18221;38.704;0.152;2023-04-25T14:46:47;6.70;;;2.60;;
10174;SDS011;18221;38.704;0.152;2023-04-25T14:56:01;8.03;;;2.40;;
10174;SDS011;18221;38.704;0.152;2023-04-25T14:58:30;6.17;;;2.70;;
10174;SDS011;18221;38.704;0.152;2023-04-25T15:00:59;5.07;;;2.67;;
10174;SDS011;18221;38.704;0.152;2023-04-25T15:10:51;6.07;;;3.50;;
10174;SDS011;18221;38.704;0.152;2023-04-25T15:13:20;7.77;;;3.73;;
10174;SDS011;18221;38.704;0.152;2023-04-25T15:15:48;7.30;;;3.43;;
10174;SDS011;18221;38.704;0.152;2023-04-25T15:18:19;6.57;;;3.90;;
10174;SDS011;18221;38.704;0.152;2023-04-25T15:20:49;8.60;;;3.70;;
10174;SDS011;18221;38.704;0.152;2023-04-25T15:23:19;6.00;;;3.40;;
10174;SDS011;18221;38.704;0.152;2023-04-25T15:25:51;7.00;;;4.00;;
10174;SDS011;18221;38.704;0.152;2023-04-25T15:28:19;10.97;;;3.90;;
10174;SDS011;18221;38.704;0.152;2023-04-25T15:30:48;6.97;;;3.30;;
10174;SDS011;18221;38.704;0.152;2023-04-25T15:40:13;6.07;;;3.50;;
10174;SDS011;18221;38.704;0.152;2023-04-25T15:42:50;8.93;;;4.13;;
10174;SDS011;18221;38.704;0.152;2023-04-25T15:45:21;5.30;;;3.50;;
10174;SDS011;18221;38.704;0.152;2023-04-25T15:47:57;5.60;;;3.30;;
10174;SDS011;18221;38.704;0.152;2023-04-25T15:53:02;5.90;;;3.90;;
10174;SDS011;18221;38.704;0.152;2023-04-25T15:55:30;6.93;;;3.53;;
10174;SDS011;18221;38.704;0.152;2023-04-25T15:58:00;8.53;;;3.90;;
10174;SDS011;18221;38.704;0.152;2023-04-25T16:00:29;5.20;;;3.60;;
10174;SDS011;18221;38.704;0.152;2023-04-25T16:03:00;4.53;;;3.40;;
10174;SDS011;18221;38.704;0.152;2023-04-25T16:05:29;4.90;;;3.33;;
10174;SDS011;18221;38.704;0.152;2023-04-25T16:07:58;6.20;;;3.17;;
10174;SDS011;18221;38.704;0.152;2023-04-25T16:10:29;5.33;;;3.00;;
10174;SDS011;18221;38.704;0.152;2023-04-25T16:13:01;7.40;;;3.20;;
10174;SDS011;18221;38.704;0.152;2023-04-25T16:15:29;5.80;;;3.27;;
10174;SDS011;18221;38.704;0.152;2023-04-25T16:17:58;5.10;;;2.37;;
10174;SDS011;18221;38.704;0.152;2023-04-25T16:20:26;4.53;;;2.40;;
10174;SDS011;18221;38.704;0.152;2023-04-25T16:22:55;6.17;;;3.03;;
10174;SDS011;18221;38.704;0.152;2023-04-25T16:25:24;6.13;;;3.13;;
10174;SDS011;18221;38.704;0.152;2023-04-25T16:27:52;5.73;;;2.67;;
10174;SDS011;18221;38.704;0.152;2023-04-25T16:30:22;5.37;;;3.10;;
10174;SDS011;18221;38.704;0.152;2023-04-25T16:32:50;5.70;;;3.40;;
10174;SDS011;18221;38.704;0.152;2023-04-25T16:35:21;6.27;;;3.17;;
10174;SDS011;18221;38.704;0.152;2023-04-25T16:37:50;5.93;;;3.20;;
10174;SDS011;18221;38.704;0.152;2023-04-25T16:40:18;5.37;;;3.20;;
10174;SDS011;18221;38.704;0.152;2023-04-25T16:42:46;8.67;;;3.23;;
10174;SDS011;18221;38.704;0.152;2023-04-25T16:45:14;7.27;;;2.23;;
10174;SDS011;18221;38.704;0.152;2023-04-25T16:47:46;3.87;;;3.00;;
10174;SDS011;18221;38.704;0.152;2023-04-25T16:50:14;5.63;;;2.60;;
10174;SDS011;18221;38.704;0.152;2023-04-25T16:52:46;4.10;;;2.30;;
10174;SDS011;18221;38.704;0.152;2023-04-25T16:55:17;3.80;;;2.23;;
10174;SDS011;18221;38.704;0.152;2023-04-25T16:57:45;3.40;;;1.93;;
10174;SDS011;18221;38.704;0.152;2023-04-25T17:00:14;3.80;;;2.20;;
10174;SDS011;18221;38.704;0.152;2023-04-25T17:02:48;4.30;;;2.30;;
10174;SDS011;18221;38.704;0.152;2023-04-25T17:05:23;4.37;;;2.30;;
10174;SDS011;18221;38.704;0.152;2023-04-25T17:07:52;3.50;;;2.10;;
10174;SDS011;18221;38.704;0.152;2023-04-25T17:10:21;4.47;;;2.40;;
10174;SDS011;18221;38.704;0.152;2023-04-25T17:12:50;4.93;;;2.50;;
10174;SDS011;18221;38.704;0.152;2023-04-25T17:17:52;5.33;;;3.00;;
10174;SDS011;18221;38.704;0.152;2023-04-25T17:20:20;6.20;;;2.00;;
10174;SDS011;18221;38.704;0.152;2023-04-25T17:22:52;4.70;;;2.43;;
10174;SDS011;18221;38.704;0.152;2023-04-25T17:25:22;4.10;;;2.27;;
10174;SDS011;18221;38.704;0.152;2023-04-25T17:27:52;3.37;;;2.30;;
10174;SDS011;18221;38.704;0.152;2023-04-25T17:30:20;6.23;;;2.30;;
10174;SDS011;18221;38.704;0.152;2023-04-25T17:32:51;4.17;;;2.20;;
10174;SDS011;18221;38.704;0.152;2023-04-25T17:35:28;6.63;;;2.63;;
10174;SDS011;18221;38.704;0.152;2023-04-25T17:37:58;2.93;;;1.90;;
10174;SDS011;18221;38.704;0.152;2023-04-25T17:40:26;4.97;;;2.40;;
10174;SDS011;18221;38.704;0.152;2023-04-25T17:42:55;4.77;;;2.27;;
10174;SDS011;18221;38.704;0.152;2023-04-25T17:45:24;4.43;;;2.10;;
10174;SDS011;18221;38.704;0.152;2023-04-25T17:47:55;4.10;;;2.17;;
10174;SDS011;18221;38.704;0.152;2023-04-25T17:50:24;5.67;;;2.23;;
10174;SDS011;18221;38.704;0.152;2023-04-25T17:52:52;3.33;;;2.13;;
10174;SDS011;18221;38.704;0.152;2023-04-25T17:55:21;4.40;;;2.00;;
10174;SDS011;18221;38.704;0.152;2023-04-25T17:57:49;5.60;;;2.20;;
10174;SDS011;18221;38.704;0.152;2023-04-25T18:00:18;6.23;;;2.57;;
10174;SDS011;18221;38.704;0.152;2023-04-25T18:02:46;7.90;;;2.53;;
10174;SDS011;18221;38.704;0.152;2023-04-25T18:05:17;4.80;;;2.20;;
10174;SDS011;18221;38.704;0.152;2023-04-25T18:07:46;5.23;;;2.40;;
10174;SDS011;18221;38.704;0.152;2023-04-25T18:10:14;9.60;;;2.90;;
10174;SDS011;18221;38.704;0.152;2023-04-25T18:12:42;3.87;;;1.83;;
10174;SDS011;18221;38.704;0.152;2023-04-25T18:15:10;4.33;;;2.13;;
10174;SDS011;18221;38.704;0.152;2023-04-25T18:17:39;4.67;;;2.30;;
10174;SDS011;18221;38.704;0.152;2023-04-25T18:20:08;5.57;;;2.20;;
10174;SDS011;18221;38.704;0.152;2023-04-25T18:22:41;7.87;;;2.50;;
10174;SDS011;18221;38.704;0.152;2023-04-25T18:25:11;5.37;;;2.63;;
10174;SDS011;18221;38.704;0.152;2023-04-25T18:27:39;8.57;;;2.53;;
10174;SDS011;18221;38.704;0.152;2023-04-25T18:30:08;7.30;;;2.63;;
10174;SDS011;18221;38.704;0.152;2023-04-25T18:32:38;11.07;;;3.23;;
10174;SDS011;18221;38.704;0.152;2023-04-25T18:35:07;5.60;;;2.60;;
10174;SDS011;18221;38.704;0.152;2023-04-25T18:40:28;6.43;;;2.80;;
10174;SDS011;18221;38.704;0.152;2023-04-25T18:42:57;5.73;;;2.80;;
10174;SDS011;18221;38.704;0.152;2023-04-25T18:45:25;9.10;;;2.87;;
10174;SDS011;18221;38.704;0.152;2023-04-25T18:47:54;6.63;;;2.53;;
10174;SDS011;18221;38.704;0.152;2023-04-25T18:50:22;5.37;;;2.63;;
10174;SDS011;18221;38.704;0.152;2023-04-25T18:52:50;5.63;;;2.63;;
10174;SDS011;18221;38.704;0.152;2023-04-25T18:55:21;4.90;;;2.70;;
10174;SDS011;18221;38.704;0.152;2023-04-25T18:57:49;4.10;;;2.40;;
10174;SDS011;18221;38.704;0.152;2023-04-25T19:00:18;3.67;;;2.30;;
10174;SDS011;18221;38.704;0.152;2023-04-25T19:02:47;6.40;;;2.40;;
10174;SDS011;18221;38.704;0.152;2023-04-25T19:05:16;6.13;;;2.37;;
10174;SDS011;18221;38.704;0.152;2023-04-25T19:07:44;3.47;;;2.10;;
10174;SDS011;18221;38.704;0.152;2023-04-25T19:10:13;4.47;;;2.20;;
10174;SDS011;18221;38.704;0.152;2023-04-25T19:12:42;2.90;;;2.30;;
10174;SDS011;18221;38.704;0.152;2023-04-25T19:15:11;7.70;;;2.87;;
10174;SDS011;18221;38.704;0.152;2023-04-25T19:17:39;5.87;;;2.40;;
10174;SDS011;18221;38.704;0.152;2023-04-25T19:20:08;3.30;;;1.97;;
10174;SDS011;18221;38.704;0.152;2023-04-25T19:22:37;4.60;;;2.03;;
10174;SDS011;18221;38.704;0.152;2023-04-25T19:25:06;5.03;;;2.33;;
10174;SDS011;18221;38.704;0.152;2023-04-25T19:27:35;7.30;;;2.27;;
10174;SDS011;18221;38.704;0.152;2023-04-25T19:30:06;4.30;;;2.00;;
10174;SDS011;18221;38.704;0.152;2023-04-25T19:32:36;9.50;;;2.40;;
10174;SDS011;18221;38.704;0.152;2023-04-25T19:35:05;5.77;;;2.57;;
10174;SDS011;18221;38.704;0.152;2023-04-25T19:37:36;5.07;;;2.57;;
10174;SDS011;18221;38.704;0.152;2023-04-25T19:40:11;4.80;;;2.37;;
10174;SDS011;18221;38.704;0.152;2023-04-25T19:42:41;7.97;;;2.53;;
10174;SDS011;18221;38.704;0.152;2023-04-25T19:45:11;4.90;;;2.37;;
10174;SDS011;18221;38.704;0.152;2023-04-25T19:47:39;8.67;;;2.40;;
10174;SDS011;18221;38.704;0.152;2023-04-25T19:50:09;5.27;;;2.40;;
10174;SDS011;18221;38.704;0.152;2023-04-25T19:52:38;5.80;;;2.70;;
10174;SDS011;18221;38.704;0.152;2023-04-25T19:55:07;4.60;;;2.20;;
10174;SDS011;18221;38.704;0.152;2023-04-25T19:57:36;7.07;;;2.67;;
10174;SDS011;18221;38.704;0.152;2023-04-25T20:00:05;7.93;;;2.97;;
10174;SDS011;18221;38.704;0.152;2023-04-25T20:02:40;7.70;;;3.00;;
10174;SDS011;18221;38.704;0.152;2023-04-25T20:05:10;6.57;;;2.60;;
10174;SDS011;18221;38.704;0.152;2023-04-25T20:07:41;4.87;;;2.40;;
10174;SDS011;18221;38.704;0.152;2023-04-25T20:10:10;8.77;;;2.40;;
10174;SDS011;18221;38.704;0.152;2023-04-25T20:12:40;6.17;;;2.53;;
10174;SDS011;18221;38.704;0.152;2023-04-25T20:15:10;8.43;;;3.17;;
10174;SDS011;18221;38.704;0.152;2023-04-25T20:17:40;8.50;;;2.67;;
10174;SDS011;18221;38.704;0.152;2023-04-25T20:20:23;7.53;;;2.80;;
10174;SDS011;18221;38.704;0.152;2023-04-25T20:22:52;7.43;;;2.87;;
10174;SDS011;18221;38.704;0.152;2023-04-25T20:25:21;7.70;;;2.67;;
10174;SDS011;18221;38.704;0.152;2023-04-25T20:27:49;7.67;;;2.53;;
10174;SDS011;18221;38.704;0.152;2023-04-25T20:30:18;11.43;;;3.00;;
10174;SDS011;18221;38.704;0.152;2023-04-25T20:32:47;7.47;;;2.80;;
10174;SDS011;18221;38.704;0.152;2023-04-25T20:35:16;6.83;;;2.80;;
10174;SDS011;18221;38.704;0.152;2023-04-25T20:37:47;5.10;;;2.60;;
10174;SDS011;18221;38.704;0.152;2023-04-25T20:40:16;6.47;;;2.70;;
10174;SDS011;18221;38.704;0.152;2023-04-25T20:42:46;4.10;;;2.50;;
10174;SDS011;18221;38.704;0.152;2023-04-25T20:45:16;10.07;;;2.70;;
10174;SDS011;18221;38.704;0.152;2023-04-25T20:47:45;5.13;;;2.70;;
10174;SDS011;18221;38.704;0.152;2023-04-25T20:50:16;6.80;;;2.50;;
10174;SDS011;18221;38.704;0.152;2023-04-25T20:52:45;6.13;;;2.70;;
10174;SDS011;18221;38.704;0.152;2023-04-25T20:55:13;5.77;;;2.47;;
10174;SDS011;18221;38.704;0.152;2023-04-25T20:57:41;4.37;;;2.23;;
10174;SDS011;18221;38.704;0.152;2023-04-25T21:00:10;4.43;;;2.30;;
10174;SDS011;18221;38.704;0.152;2023-04-25T21:03:04;4.10;;;2.40;;
10174;SDS011;18221;38.704;0.152;2023-04-25T21:05:33;3.33;;;2.20;;
10174;SDS011;18221;38.704;0.152;2023-04-25T21:08:01;4.07;;;2.10;;
10174;SDS011;18221;38.704;0.152;2023-04-25T21:10:30;3.97;;;1.93;;
10174;SDS011;18221;38.704;0.152;2023-04-25T21:12:58;2.97;;;1.80;;
10174;SDS011;18221;38.704;0.152;2023-04-25T21:15:27;3.80;;;2.00;;
10174;SDS011;18221;38.704;0.152;2023-04-25T21:17:55;3.27;;;1.83;;
10174;SDS011;18221;38.704;0.152;2023-04-25T21:23:06;4.53;;;2.20;;
10174;SDS011;18221;38.704;0.152;2023-04-25T21:25:35;4.20;;;2.13;;
10174;SDS011;18221;38.704;0.152;2023-04-25T21:28:04;2.73;;;1.90;;
10174;SDS011;18221;38.704;0.152;2023-04-25T21:30:32;6.70;;;2.37;;
10174;SDS011;18221;38.704;0.152;2023-04-25T21:33:01;4.77;;;2.33;;
10174;SDS011;18221;38.704;0.152;2023-04-25T21:35:30;3.13;;;2.03;;
10174;SDS011;18221;38.704;0.152;2023-04-25T21:38:00;3.83;;;1.90;;
10174;SDS011;18221;38.704;0.152;2023-04-25T21:40:29;5.37;;;2.20;;
10174;SDS011;18221;38.704;0.152;2023-04-25T21:42:57;4.23;;;2.30;;
10174;SDS011;18221;38.704;0.152;2023-04-25T21:45:26;4.27;;;2.00;;
10174;SDS011;18221;38.704;0.152;2023-04-25T21:47:56;6.77;;;2.43;;
10174;SDS011;18221;38.704;0.152;2023-04-25T21:50:24;8.83;;;2.73;;
10174;SDS011;18221;38.704;0.152;2023-04-25T21:52:55;7.87;;;3.17;;
10174;SDS011;18221;38.704;0.152;2023-04-25T21:55:25;6.70;;;3.10;;
10174;SDS011;18221;38.704;0.152;2023-04-25T21:57:54;7.03;;;2.67;;
10174;SDS011;18221;38.704;0.152;2023-04-25T22:00:28;10.57;;;3.07;;
10174;SDS011;18221;38.704;0.152;2023-04-25T22:02:57;7.20;;;2.37;;
10174;SDS011;18221;38.704;0.152;2023-04-25T22:05:26;10.13;;;2.90;;
10174;SDS011;18221;38.704;0.152;2023-04-25T22:07:54;7.10;;;2.63;;
10174;SDS011;18221;38.704;0.152;2023-04-25T22:10:23;11.43;;;2.70;;
10174;SDS011;18221;38.704;0.152;2023-04-25T22:12:54;4.13;;;2.50;;
10174;SDS011;18221;38.704;0.152;2023-04-25T22:15:27;6.83;;;2.60;;
10174;SDS011;18221;38.704;0.152;2023-04-25T22:17:55;5.77;;;2.60;;
10174;SDS011;18221;38.704;0.152;2023-04-25T22:20:25;7.53;;;2.77;;
10174;SDS011;18221;38.704;0.152;2023-04-25T22:22:53;9.27;;;2.90;;
10174;SDS011;18221;38.704;0.152;2023-04-25T22:25:22;8.87;;;3.23;;
10174;SDS011;18221;38.704;0.152;2023-04-25T22:30:35;9.30;;;3.10;;
10174;SDS011;18221;38.704;0.152;2023-04-25T22:33:04;9.63;;;2.90;;
10174;SDS011;18221;38.704;0.152;2023-04-25T22:35:32;7.57;;;2.87;;
10174;SDS011;18221;38.704;0.152;2023-04-25T22:38:01;5.20;;;2.50;;
10174;SDS011;18221;38.704;0.152;2023-04-25T22:40:29;5.87;;;2.70;;
10174;SDS011;18221;38.704;0.152;2023-04-25T22:42:58;5.57;;;2.53;;
10174;SDS011;18221;38.704;0.152;2023-04-25T22:45:28;11.20;;;2.90;;
10174;SDS011;18221;38.704;0.152;2023-04-25T22:47:57;5.63;;;2.70;;
10174;SDS011;18221;38.704;0.152;2023-04-25T22:50:25;6.63;;;2.87;;
10174;SDS011;18221;38.704;0.152;2023-04-25T22:52:54;5.57;;;3.10;;
10174;SDS011;18221;38.704;0.152;2023-04-25T22:55:28;6.83;;;2.70;;
10174;SDS011;18221;38.704;0.152;2023-04-25T22:57:57;7.00;;;3.00;;
10174;SDS011;18221;38.704;0.152;2023-04-25T23:00:28;5.37;;;2.73;;
10174;SDS011;18221;38.704;0.152;2023-04-25T23:02:58;6.93;;;3.03;;
10174;SDS011;18221;38.704;0.152;2023-04-25T23:05:28;5.60;;;2.70;;
10174;SDS011;18221;38.704;0.152;2023-04-25T23:07:57;4.87;;;2.70;;
10174;SDS011;18221;38.704;0.152;2023-04-25T23:10:26;6.63;;;3.13;;
10174;SDS011;18221;38.704;0.152;2023-04-25T23:12:55;7.10;;;3.23;;
10174;SDS011;18221;38.704;0.152;2023-04-25T23:15:25;7.73;;;3.07;;
10174;SDS011;18221;38.704;0.152;2023-04-25T23:17:56;6.63;;;3.10;;
10174;SDS011;18221;38.704;0.152;2023-04-25T23:20:24;8.30;;;3.33;;
10174;SDS011;18221;38.704;0.152;2023-04-25T23:22:52;5.33;;;2.80;;
10174;SDS011;18221;38.704;0.152;2023-04-25T23:25:21;3.87;;;2.57;;
10174;SDS011;18221;38.704;0.152;2023-04-25T23:27:50;6.60;;;2.87;;
10174;SDS011;18221;38.704;0.152;2023-04-25T23:30:18;7.00;;;2.60;;
10174;SDS011;18221;38.704;0.152;2023-04-25T23:35:20;4.30;;;2.40;;
10174;SDS011;18221;38.704;0.152;2023-04-25T23:37:48;3.27;;;1.83;;
10174;SDS011;18221;38.704;0.152;2023-04-25T23:40:17;6.37;;;2.13;;
10174;SDS011;18221;38.704;0.152;2023-04-25T23:42:46;6.03;;;2.30;;
10174;SDS011;18221;38.704;0.152;2023-04-25T23:47:49;6.03;;;2.30;;
